Cortez, CO

4:22 AM MDT on September 16, 2014 (GMT -0600)
Cortez Municipal | Change Station
CLOSE
Current Station
Airport
Location: Cortez,
Elevation: 5915 ft
Nearby Weather Stations

Elev 5915 ft 37.31 °N, 108.63 °W | Updated 29 minutes ago

Clear
Clear
57 °F
Feels Like 57 °F
N
8
Wind Variable Wind from ENE

Today
High -- | Low -- °F
--% Chance of Precip.
Yesterday
High -- | Low -- °F
Precip. -- in
6:57 AM 7:21 PM
Waning Gibbous, 47% visible
Pressure 30.08 in
Visibility 10.0 miles
Clouds Clear
Dew Point 46 °F
Humidity 67%
Rainfall 0.00 in
Snow Depth 1 in , 0 in , 11 in
UV 0 out of 12
Pollen 6.70 out of 12
Air Quality Not available.
Flu Activity Not available.
METAR KCEZ 160953Z AUTO 07007KT 10SM CLR 14/08 A3030 RMK AO2 SLP186 T01390078

More Conditions Fewer Conditions

Pressure 30.08 in
Visibility 10.0 miles
Clouds Clear
Dew Point 46 °F
Humidity 67%
Rainfall 0.00 in
Snow Depth 1 in , 0 in , 11 in
UV 0 out of 12
Pollen 6.70 out of 12
Air Quality Not available.
Flu Activity Not available.
METAR KCEZ 160953Z AUTO 07007KT 10SM CLR 14/08 A3030 RMK AO2 SLP186 T01390078

More Conditions Fewer Conditions

10-Day Weather Forecast

Almanac

Astronomy

Sep. 16, 2014 Rise Set
Actual Time 6:57 AM MDT 7:21 PM MDT
Civil Twilight 6:31 AM MDT 7:47 PM MDT
Nautical Twilight 6:00 AM MDT 8:17 PM MDT
Astronomical Twilight 5:29 AM MDT 8:48 PM MDT
Moon 12:15 AM MDT 2:41 PM MDT
Length of Visible Light 13h 15m
Length of Day
12h 23m
Tomorrow will be 2m 21s shorter.
Waning Gibbous, 47% of the Moon is Illuminated
Today
Waning Gibbous
Sep 24
New
Oct 1
First Quarter
Oct 8
Full
Oct 15
Last Quarter

Today's Extremes

State Highs State Lows

Community

WunderPhotos

Upload Photos

1,753,718 photos uploaded!

WunderBlogs® & News

Nearby

Snow Depth

Station Depth Elevation
Arapaho Ridge 1 in 10960 ft
Copper Mountain 0 in 10500 ft
Overland Reservoir 0 in 9880 ft
Mccoy Park 11 in 9480 ft
Ripple Creek 0 in 10340 ft

Earthquake Activity

City Distance Mag. Time & Date
No recent earthquake activity has been reported nearby.
Minimum magnitude displayed is 2.5.

Coastal Water Temperatures

Place Temperature
No Stations Reporting

Nearby Weather Stations